Time;durP1;ratioP1;P1;durP2;ratioP2;P2;SDS_P1;SDS_P2;PMS_P1;PMS_P2;Temp;Humidity;BMP_temperature;BMP_pressure;BME280_temperature;BME280_humidity;BME280_pressure;Samples;Min_cycle;Max_cycle;Signal;HPM_P1;HPM_P2
2022/05/17 00:00:30;;;;;;;2.97;1.40;;;;;;;9.59;69.14;98544.31;5029885;28;20087;-55
2022/05/17 00:02:57;;;;;;;1.40;1.30;;;;;;;9.57;69.08;98535.59;5039456;28;20037;-52
2022/05/17 00:05:23;;;;;;;2.80;1.10;;;;;;;9.54;69.42;98535.91;5038800;28;20041;-56
2022/05/17 00:07:49;;;;;;;2.53;1.17;;;;;;;9.54;69.59;98538.59;5049537;28;20025;-55
2022/05/17 00:10:14;;;;;;;1.73;1.20;;;;;;;9.56;69.53;98533.94;5034924;28;20061;-55
2022/05/17 00:12:40;;;;;;;2.05;1.20;;;;;;;9.58;69.86;98521.25;5035766;28;20477;-56
2022/05/17 00:15:06;;;;;;;2.42;1.33;;;;;;;9.59;69.66;98522.13;5053069;28;20465;-56
2022/05/17 00:17:32;;;;;;;1.48;0.90;;;;;;;9.54;69.38;98508.38;5047180;28;20041;-55
2022/05/17 00:19:58;;;;;;;2.28;1.10;;;;;;;9.55;69.77;98510.06;5033551;28;20035;-55
2022/05/17 00:22:24;;;;;;;2.33;1.10;;;;;;;9.57;69.95;98516.09;5045293;28;20033;-55
2022/05/17 00:24:49;;;;;;;2.03;0.93;;;;;;;9.58;69.95;98510.56;5033471;28;20535;-56
2022/05/17 00:27:15;;;;;;;2.08;1.20;;;;;;;9.58;70.07;98507.91;5033146;28;20080;-56
2022/05/17 00:29:40;;;;;;;1.40;0.95;;;;;;;9.60;70.14;98497.91;5033441;28;20389;-58
2022/05/17 00:32:06;;;;;;;3.38;1.05;;;;;;;9.61;70.43;98507.59;5034473;28;20049;-59
2022/05/17 00:34:32;;;;;;;2.40;1.00;;;;;;;9.62;70.25;98500.44;5038562;28;20104;-59
2022/05/17 00:36:58;;;;;;;4.80;1.02;;;;;;;9.59;70.35;98496.22;5034562;28;20163;-55
2022/05/17 00:39:23;;;;;;;4.22;1.10;;;;;;;9.60;70.33;98489.06;5034381;28;20037;-58
2022/05/17 00:41:49;;;;;;;2.28;1.30;;;;;;;9.45;69.88;98462.00;5019989;28;20496;-55
2022/05/17 00:47:03;;;;;;;5.32;1.20;;;;;;;9.54;70.22;98479.81;5035230;28;20064;-56
2022/05/17 00:49:38;;;;;;;1.65;1.10;;;;;;;9.54;70.46;98490.50;5033695;28;20022;-59
2022/05/17 00:52:19;;;;;;;1.42;1.17;;;;;;;9.56;71.07;98488.50;5040284;28;20121;-57
2022/05/17 00:54:45;;;;;;;4.40;1.27;;;;;;;9.44;71.00;98487.06;5050774;28;20112;-59
2022/05/17 00:57:20;;;;;;;2.55;1.00;;;;;;;9.43;71.67;98480.03;5051427;28;20025;-54
2022/05/17 00:59:48;;;;;;;1.40;0.98;;;;;;;9.48;71.27;98483.09;5032886;28;20045;-57
2022/05/17 01:02:14;;;;;;;1.30;1.02;;;;;;;9.30;71.64;98451.81;5042495;28;20408;-55
2022/05/17 01:04:40;;;;;;;1.83;1.17;;;;;;;9.45;71.33;98486.88;5052670;28;20051;-57
2022/05/17 01:07:16;;;;;;;0.70;0.70;;;;;;;9.45;71.22;98481.53;5034597;28;20123;-57
2022/05/17 01:09:42;;;;;;;0.98;0.90;;;;;;;9.44;72.27;98485.19;5040453;28;20124;-55
2022/05/17 01:12:08;;;;;;;1.08;0.77;;;;;;;9.43;71.83;98485.38;5035765;28;20124;-58
2022/05/17 01:17:17;;;;;;;2.25;0.90;;;;;;;9.51;71.99;98476.56;5048415;28;20041;-57
2022/05/17 01:19:44;;;;;;;1.15;0.80;;;;;;;9.55;71.23;98473.47;5032544;28;20037;-59
2022/05/17 01:22:10;;;;;;;1.73;0.90;;;;;;;9.55;71.48;98486.00;5043110;28;20535;-55
2022/05/17 01:24:36;;;;;;;1.10;1.00;;;;;;;9.51;71.54;98481.91;5044920;28;20022;-56
2022/05/17 01:27:36;;;;;;;1.45;0.90;;;;;;;9.60;71.46;98471.16;5032194;28;20086;-60
2022/05/17 01:30:04;;;;;;;1.38;1.00;;;;;;;9.53;71.49;98478.13;5032886;28;20041;-58
2022/05/17 01:32:30;;;;;;;0.70;0.70;;;;;;;9.53;71.39;98479.97;5041844;28;20556;-61
2022/05/17 01:34:55;;;;;;;2.10;0.80;;;;;;;9.45;71.64;98462.84;5014485;28;20127;-59
2022/05/17 01:37:21;;;;;;;0.80;0.70;;;;;;;9.37;71.91;98454.75;5032098;28;20033;-61
2022/05/17 01:39:46;;;;;;;0.90;0.80;;;;;;;9.43;71.99;98466.66;5043200;28;20033;-60
2022/05/17 01:42:14;;;;;;;2.22;0.80;;;;;;;9.49;72.13;98476.75;5044339;28;20029;-60
2022/05/17 01:44:41;;;;;;;0.80;0.70;;;;;;;9.43;72.33;98480.03;5034905;28;20112;-59
2022/05/17 01:47:07;;;;;;;1.60;0.95;;;;;;;9.45;71.76;98478.03;5009055;28;20103;-61
2022/05/17 01:49:32;;;;;;;3.22;0.90;;;;;;;9.23;72.17;98445.41;5037320;28;20048;-57
2022/05/17 01:51:58;;;;;;;1.20;0.93;;;;;;;9.45;72.05;98465.50;5024039;28;20022;-59
2022/05/17 01:54:23;;;;;;;4.20;1.05;;;;;;;9.38;72.56;98467.09;5032040;28;20076;-60
2022/05/17 01:56:49;;;;;;;1.50;0.80;;;;;;;9.37;72.75;98467.25;5028208;28;20045;-58
2022/05/17 01:59:15;;;;;;;0.77;0.77;;;;;;;9.42;72.71;98481.03;5024439;28;20086;-61
2022/05/17 02:01:41;;;;;;;2.58;0.90;;;;;;;9.45;72.72;98473.53;5031513;28;20098;-60
2022/05/17 02:04:06;;;;;;;0.88;0.75;;;;;;;9.48;72.60;98472.41;5026318;28;20092;-59
2022/05/17 02:06:32;;;;;;;1.33;0.70;;;;;;;9.47;72.23;98468.03;5031270;28;20032;-60
2022/05/17 02:08:57;;;;;;;1.60;1.00;;;;;;;9.47;72.58;98471.53;5034573;28;20803;-59
2022/05/17 02:11:22;;;;;;;1.08;0.73;;;;;;;9.47;72.72;98471.53;5029769;28;20390;-61
2022/05/17 02:13:48;;;;;;;2.00;1.00;;;;;;;9.33;72.68;98440.00;5045419;28;20071;-59
2022/05/17 02:16:14;;;;;;;2.03;0.90;;;;;;;9.50;72.61;98470.41;5036945;28;20118;-59
2022/05/17 02:18:39;;;;;;;2.97;0.70;;;;;;;9.53;72.73;98469.28;5021437;28;20122;-58
2022/05/17 02:21:05;;;;;;;1.00;0.90;;;;;;;9.39;72.21;98439.41;5021839;28;20051;-60
2022/05/17 02:23:31;;;;;;;0.98;0.90;;;;;;;9.56;72.76;98471.66;5041605;28;20510;-59
2022/05/17 02:25:56;;;;;;;2.08;0.82;;;;;;;9.59;72.21;98458.81;5051083;28;20041;-59
2022/05/17 02:28:22;;;;;;;2.35;1.00;;;;;;;9.63;72.06;98459.34;5027355;28;20431;-58
2022/05/17 02:30:47;;;;;;;2.25;0.70;;;;;;;9.66;71.91;98468.91;5030912;28;20120;-58
2022/05/17 02:33:14;;;;;;;1.10;0.90;;;;;;;9.64;71.92;98461.03;5049404;28;20051;-60
2022/05/17 02:35:41;;;;;;;0.70;0.70;;;;;;;9.63;72.27;98459.34;5050459;28;20040;-60
2022/05/17 02:38:07;;;;;;;0.70;0.70;;;;;;;9.70;72.28;98459.59;5044507;28;20431;-60
2022/05/17 02:40:34;;;;;;;0.95;0.77;;;;;;;9.72;71.97;98444.25;5030903;28;20036;-60
2022/05/17 02:42:59;;;;;;;0.90;0.80;;;;;;;9.80;72.39;98455.00;5036281;28;20111;-61
2022/05/17 02:45:25;;;;;;;1.00;0.80;;;;;;;9.86;72.15;98451.72;5050335;28;20119;-60
2022/05/17 02:47:52;;;;;;;1.05;0.85;;;;;;;9.94;71.80;98452.78;5046697;28;20033;-61
2022/05/17 02:50:18;;;;;;;2.28;0.77;;;;;;;9.90;71.89;98444.22;5031002;28;20037;-60
2022/05/17 02:52:44;;;;;;;2.35;0.95;;;;;;;9.99;72.11;98445.97;5015906;28;20041;-59
2022/05/17 02:55:11;;;;;;;2.50;0.80;;;;;;;10.08;70.92;98449.56;5045768;28;20044;-59
2022/05/17 02:57:38;;;;;;;0.80;0.70;;;;;;;10.05;71.01;98457.91;5033762;28;20037;-60
2022/05/17 03:00:07;;;;;;;2.00;0.80;;;;;;;10.06;71.47;98454.22;5050265;28;20056;-59
2022/05/17 03:02:32;;;;;;;1.35;0.80;;;;;;;9.90;71.61;98428.19;5030494;28;20037;-59
2022/05/17 03:04:58;;;;;;;0.90;0.90;;;;;;;10.09;71.87;98456.59;5050352;28;20032;-60
2022/05/17 03:07:23;;;;;;;2.17;0.75;;;;;;;10.09;71.14;98463.78;5024348;28;20040;-58
2022/05/17 03:09:49;;;;;;;1.33;0.70;;;;;;;10.00;71.27;98460.19;5030896;28;20030;-58
2022/05/17 03:12:14;;;;;;;1.45;0.75;;;;;;;10.04;70.87;98453.53;5039595;28;20032;-57
2022/05/17 03:14:40;;;;;;;1.30;0.70;;;;;;;9.99;71.37;98456.66;5031939;28;20120;-57
2022/05/17 03:17:13;;;;;;;0.70;0.70;;;;;;;10.03;71.45;98452.72;5034392;28;20358;-57
2022/05/17 03:19:40;;;;;;;1.25;0.70;;;;;;;9.97;71.03;98452.50;5032695;28;20142;-58
2022/05/17 03:22:05;;;;;;;0.70;0.70;;;;;;;9.99;71.36;98458.53;5035971;28;20033;-58
2022/05/17 03:24:31;;;;;;;0.80;0.80;;;;;;;10.02;71.81;98448.38;5049813;28;20392;-57
2022/05/17 03:26:57;;;;;;;1.33;0.93;;;;;;;9.99;71.13;98443.28;5050267;28;20473;-58
2022/05/17 03:29:23;;;;;;;1.20;0.88;;;;;;;10.07;70.62;98444.38;5037515;28;20489;-54
2022/05/17 03:31:50;;;;;;;2.72;1.00;;;;;;;10.07;70.85;98450.56;5049777;28;20083;-56
2022/05/17 03:34:15;;;;;;;1.20;0.80;;;;;;;10.12;70.97;98452.78;5049876;28;20041;-57
2022/05/17 03:36:40;;;;;;;1.35;0.80;;;;;;;10.07;70.28;98444.38;5040188;28;20385;-54
2022/05/17 03:39:06;;;;;;;0.90;0.88;;;;;;;10.12;70.28;98447.41;5043106;28;20115;-58
2022/05/17 03:41:31;;;;;;;1.15;0.85;;;;;;;10.11;70.42;98457.25;5035503;28;20104;-54
2022/05/17 03:43:57;;;;;;;0.82;0.80;;;;;;;10.11;70.32;98457.25;5029788;28;20389;-56
2022/05/17 03:46:22;;;;;;;0.85;0.75;;;;;;;10.11;70.08;98459.94;5012629;28;20104;-56
2022/05/17 03:48:48;;;;;;;1.60;0.88;;;;;;;9.93;70.37;98432.41;5042012;28;20080;-53
2022/05/17 03:51:16;;;;;;;1.00;0.88;;;;;;;10.14;70.39;98458.81;5043339;28;20072;-60
2022/05/17 03:53:42;;;;;;;1.05;0.77;;;;;;;10.15;70.31;98461.34;5034860;28;20366;-56
2022/05/17 03:56:08;;;;;;;1.13;0.90;;;;;;;10.14;70.14;98459.66;5033891;28;20029;-57
2022/05/17 03:58:33;;;;;;;0.90;0.90;;;;;;;10.06;70.18;98446.19;5041400;28;20121;-58
2022/05/17 04:00:59;;;;;;;1.67;0.90;;;;;;;9.96;69.85;98432.91;5053429;28;20037;-56
2022/05/17 04:03:24;;;;;;;0.80;0.80;;;;;;;10.12;70.09;98466.16;5050344;28;20040;-57
2022/05/17 04:05:50;;;;;;;1.48;1.02;;;;;;;10.06;70.43;98456.91;5007280;28;20033;-59
2022/05/17 04:08:15;;;;;;;2.45;1.00;;;;;;;10.09;70.49;98461.94;5038559;28;20053;-55
2022/05/17 04:10:41;;;;;;;2.30;0.82;;;;;;;10.14;70.56;98456.97;5053817;28;20029;-53
2022/05/17 04:13:06;;;;;;;1.30;0.98;;;;;;;10.15;71.09;98466.69;5021787;28;20033;-52
2022/05/17 04:15:32;;;;;;;0.73;0.70;;;;;;;10.12;70.98;98448.25;5050126;28;20036;-53
2022/05/17 04:17:57;;;;;;;0.70;0.70;;;;;;;10.16;70.49;98449.66;5050177;28;20056;-52
2022/05/17 04:20:24;;;;;;;1.55;0.95;;;;;;;10.15;70.63;98461.34;5043229;28;20043;-55
2022/05/17 04:22:52;;;;;;;1.38;0.90;;;;;;;10.16;69.82;98454.13;5042097;28;20067;-57
2022/05/17 04:25:21;;;;;;;0.77;0.77;;;;;;;10.24;69.82;98462.22;5033399;28;20312;-57
2022/05/17 04:27:47;;;;;;;2.90;0.90;;;;;;;10.11;69.93;98427.84;5015960;28;20104;-57
2022/05/17 04:30:13;;;;;;;0.60;0.60;;;;;;;10.35;69.18;98458.44;5035995;28;20112;-56
2022/05/17 04:32:39;;;;;;;0.85;0.82;;;;;;;10.36;69.64;98459.31;5043101;28;20037;-55
2022/05/17 04:35:05;;;;;;;0.85;0.60;;;;;;;10.33;70.00;98450.59;5035228;28;20038;-56
2022/05/17 04:37:32;;;;;;;2.05;0.90;;;;;;;10.05;69.79;98421.31;5033841;28;20044;-58
2022/05/17 04:39:57;;;;;;;0.77;0.75;;;;;;;10.25;70.48;98452.38;5039537;28;20119;-57
2022/05/17 04:42:23;;;;;;;0.70;0.70;;;;;;;10.24;69.99;98451.50;5037225;28;20036;-58
2022/05/17 04:44:48;;;;;;;0.77;0.70;;;;;;;10.24;70.19;98456.03;5032979;28;20034;-57
2022/05/17 04:47:14;;;;;;;2.08;1.00;;;;;;;10.24;71.02;98450.69;5033272;28;20402;-58
2022/05/17 04:49:39;;;;;;;1.00;0.98;;;;;;;10.30;70.52;98450.06;5035889;28;20028;-58
2022/05/17 04:52:06;;;;;;;1.48;0.82;;;;;;;10.40;70.41;98458.00;5033300;28;20389;-58
2022/05/17 04:54:32;;;;;;;3.83;0.85;;;;;;;10.50;69.20;98455.25;5024943;28;20095;-59
2022/05/17 04:56:57;;;;;;;1.40;1.23;;;;;;;10.48;69.74;98453.56;5015091;28;20489;-60
2022/05/17 04:59:23;;;;;;;1.73;1.10;;;;;;;10.47;69.63;98462.59;5037878;28;20033;-62
2022/05/17 05:01:49;;;;;;;1.10;0.98;;;;;;;10.47;69.32;98451.88;5039925;28;20141;-59
2022/05/17 05:04:14;;;;;;;3.67;1.00;;;;;;;10.52;69.38;98455.94;5035389;28;20486;-60
2022/05/17 05:06:40;;;;;;;1.20;1.00;;;;;;;10.51;69.24;98464.94;5032816;28;20038;-56
2022/05/17 05:09:05;;;;;;;3.30;1.10;;;;;;;10.50;69.85;98457.91;5032762;28;20040;-54
2022/05/17 05:11:31;;;;;;;1.75;0.90;;;;;;;10.49;69.58;98459.78;5049484;28;20049;-57
2022/05/17 05:13:57;;;;;;;1.95;1.23;;;;;;;10.46;69.95;98466.28;5048469;28;20108;-60
2022/05/17 05:16:22;;;;;;;1.80;1.08;;;;;;;10.46;69.94;98465.41;5052135;28;20106;-59
2022/05/17 05:18:47;;;;;;;1.10;0.90;;;;;;;10.40;69.77;98453.53;5039692;28;20040;-61
2022/05/17 05:21:15;;;;;;;2.05;1.50;;;;;;;10.43;70.03;98473.75;5032562;28;20045;-59
2022/05/17 05:23:42;;;;;;;1.30;1.20;;;;;;;10.41;70.43;98471.25;5039537;28;20477;-58
2022/05/17 05:26:10;;;;;;;5.03;1.13;;;;;;;10.41;70.34;98471.25;5045651;28;20044;-55
2022/05/17 05:28:37;;;;;;;2.03;1.20;;;;;;;10.43;70.56;98473.75;5032163;28;20098;-59
2022/05/17 05:31:03;;;;;;;1.98;1.50;;;;;;;10.41;70.28;98468.59;5032187;28;20037;-58
2022/05/17 05:33:31;;;;;;;1.40;1.05;;;;;;;10.45;69.88;98469.09;5036644;28;20040;-57
2022/05/17 05:35:57;;;;;;;1.42;1.33;;;;;;;10.44;70.52;98472.75;5040893;28;20021;-57
2022/05/17 05:38:24;;;;;;;2.03;1.30;;;;;;;10.46;70.25;98474.28;5052125;28;20469;-58
2022/05/17 05:40:50;;;;;;;2.17;1.30;;;;;;;10.46;70.61;98462.75;5032743;28;20037;-59
2022/05/17 05:43:15;;;;;;;2.10;1.67;;;;;;;10.58;70.61;98471.34;5032045;28;20033;-55
2022/05/17 05:45:41;;;;;;;3.08;1.60;;;;;;;10.56;70.39;98476.03;5032078;28;20045;-55
2022/05/17 05:48:07;;;;;;;2.22;1.35;;;;;;;10.59;70.87;98479.22;5046703;28;20032;-58
2022/05/17 05:50:34;;;;;;;1.60;1.50;;;;;;;10.64;70.94;98484.13;5025905;28;20033;-60
2022/05/17 05:53:09;;;;;;;2.60;1.40;;;;;;;10.79;70.80;98486.19;5037334;28;20037;-57
2022/05/17 05:55:35;;;;;;;1.70;1.08;;;;;;;10.74;70.57;98479.50;5051301;28;20437;-56
2022/05/17 05:58:02;;;;;;;1.65;1.20;;;;;;;10.75;70.24;98486.53;5051323;28;20036;-57
2022/05/17 06:00:27;;;;;;;1.25;1.10;;;;;;;10.80;70.25;98488.72;5051359;28;20555;-58
2022/05/17 06:02:54;;;;;;;1.58;1.40;;;;;;;10.88;70.13;98486.09;5037190;28;20113;-55
2022/05/17 06:05:22;;;;;;;2.42;1.65;;;;;;;10.98;70.44;98490.50;5051364;28;20040;-59
2022/05/17 06:07:48;;;;;;;1.60;1.20;;;;;;;11.12;70.38;98487.22;5051651;28;20037;-60
2022/05/17 06:10:14;;;;;;;2.38;1.48;;;;;;;11.21;69.84;98493.44;5051368;28;20461;-53
2022/05/17 06:12:40;;;;;;;2.88;1.50;;;;;;;11.32;69.52;98484.28;5036004;28;20081;-55
2022/05/17 06:15:07;;;;;;;1.42;1.33;;;;;;;11.39;68.65;98487.16;5019680;28;20037;-58
2022/05/17 06:17:33;;;;;;;2.80;1.70;;;;;;;11.52;68.75;98497.41;5047648;28;20389;-56
2022/05/17 06:20:00;;;;;;;1.92;1.30;;;;;;;11.55;68.03;98491.72;5039064;28;20059;-53
2022/05/17 06:22:27;;;;;;;2.53;1.38;;;;;;;11.62;68.04;98498.09;5041586;28;20037;-57
2022/05/17 06:24:52;;;;;;;2.30;1.70;;;;;;;11.57;67.92;98498.59;5045006;28;20030;-56
2022/05/17 06:27:18;;;;;;;1.50;1.40;;;;;;;11.58;67.42;98494.09;5050597;28;20036;-55
2022/05/17 06:29:44;;;;;;;2.28;1.45;;;;;;;11.59;66.75;98488.56;5051313;28;20473;-55
2022/05/17 06:32:12;;;;;;;1.73;1.50;;;;;;;11.55;67.34;98497.91;5051195;28;20051;-56
2022/05/17 06:34:38;;;;;;;3.97;1.70;;;;;;;11.45;67.30;98484.69;5050340;28;20448;-53
2022/05/17 06:37:04;;;;;;;2.17;1.52;;;;;;;11.48;67.09;98504.94;5046014;28;20029;-53
2022/05/17 06:39:30;;;;;;;2.65;1.73;;;;;;;11.37;67.46;98498.03;5033529;28;20032;-56
2022/05/17 06:41:56;;;;;;;5.05;1.48;;;;;;;11.39;67.92;98497.88;5031128;28;20466;-58
2022/05/17 06:44:21;;;;;;;4.63;2.22;;;;;;;11.24;67.90;98462.84;5047449;28;20041;-57
2022/05/17 06:46:47;;;;;;;2.20;1.80;;;;;;;11.37;68.03;98473.91;5033232;28;20060;-58
2022/05/17 06:49:12;;;;;;;3.00;2.05;;;;;;;11.58;67.14;98502.97;5044435;28;20048;-57
2022/05/17 06:51:39;;;;;;;3.13;2.08;;;;;;;11.54;66.97;98503.44;5039893;28;20028;-60
2022/05/17 06:54:05;;;;;;;5.30;2.08;;;;;;;11.55;67.09;98510.50;5048788;28;20055;-57
2022/05/17 06:56:31;;;;;;;2.80;2.25;;;;;;;11.48;67.58;98512.97;5051005;28;20469;-59
2022/05/17 06:58:56;;;;;;;4.22;2.50;;;;;;;11.52;67.81;98503.59;5047060;28;20040;-58
2022/05/17 07:01:22;;;;;;;5.65;2.58;;;;;;;11.37;67.73;98486.50;5035509;28;20052;-57
2022/05/17 07:03:50;;;;;;;3.28;2.65;;;;;;;11.51;67.18;98507.28;5044160;28;20044;-53
2022/05/17 07:06:16;;;;;;;3.08;2.50;;;;;;;11.41;66.99;98512.78;5039919;28;20043;-57
2022/05/17 07:08:41;;;;;;;2.95;2.60;;;;;;;11.35;67.59;98521.47;5049643;28;20025;-57
2022/05/17 07:13:52;;;;;;;5.90;3.33;;;;;;;11.14;68.04;98500.47;5036015;28;20488;-55
2022/05/17 07:16:18;;;;;;;3.50;2.92;;;;;;;11.08;67.41;98496.56;5039617;28;20033;-56
2022/05/17 07:18:43;;;;;;;4.60;2.97;;;;;;;11.23;68.16;98518.25;5040316;28;20040;-54
2022/05/17 07:21:11;;;;;;;6.70;3.05;;;;;;;11.40;68.15;98532.53;5032111;28;20033;-54
2022/05/17 07:23:38;;;;;;;6.50;3.53;;;;;;;11.50;67.41;98532.41;5051945;28;20040;-61
2022/05/17 07:26:04;;;;;;;3.60;2.92;;;;;;;11.54;67.40;98531.09;5051463;28;20161;-55
2022/05/17 07:28:29;;;;;;;4.50;2.92;;;;;;;11.58;67.32;98535.16;5053980;28;20025;-58
2022/05/17 07:30:55;;;;;;;3.78;3.30;;;;;;;11.59;67.38;98536.81;5042829;28;20094;-54
2022/05/17 07:33:21;;;;;;;5.85;3.78;;;;;;;11.60;67.89;98548.38;5042321;28;20044;-57
2022/05/17 07:35:47;;;;;;;7.50;3.58;;;;;;;11.54;68.01;98543.66;5052546;28;20387;-57
2022/05/17 07:38:13;;;;;;;5.32;4.18;;;;;;;11.50;68.29;98548.50;5053271;28;20044;-56
2022/05/17 07:40:39;;;;;;;5.75;4.75;;;;;;;11.47;68.24;98544.31;5038839;28;20032;-55
2022/05/17 07:43:05;;;;;;;5.25;4.25;;;;;;;11.32;67.80;98524.47;5053223;28;20358;-58
2022/05/17 07:45:30;;;;;;;5.30;4.50;;;;;;;11.50;68.16;98548.50;5037285;28;20396;-57
2022/05/17 07:47:56;;;;;;;5.32;4.45;;;;;;;11.52;67.64;98534.94;5049850;28;20037;-57
2022/05/17 07:50:21;;;;;;;6.28;4.10;;;;;;;11.49;67.27;98544.13;5053222;28;20029;-58
2022/05/17 07:52:47;;;;;;;7.85;4.15;;;;;;;11.54;67.15;98535.63;5047664;28;20446;-55
2022/05/17 07:55:13;;;;;;;8.05;4.30;;;;;;;11.57;66.99;98544.16;5049479;28;20040;-54
2022/05/17 07:57:39;;;;;;;5.38;4.40;;;;;;;11.73;67.54;98538.03;5035522;28;20040;-59
2022/05/17 08:00:06;;;;;;;6.07;4.97;;;;;;;12.05;66.64;98525.72;5033746;28;20060;-56
2022/05/17 08:02:33;;;;;;;9.68;5.93;;;;;;;12.55;65.04;98524.91;5034036;28;20032;-59
2022/05/17 08:04:58;;;;;;;7.03;5.03;;;;;;;13.13;64.24;98522.13;5038525;28;20041;-54
2022/05/17 08:07:24;;;;;;;8.00;5.78;;;;;;;13.56;63.03;98497.59;5023394;28;20116;-58
2022/05/17 08:09:49;;;;;;;6.38;4.85;;;;;;;14.15;59.79;98520.47;5034868;28;20052;-58
2022/05/17 08:12:14;;;;;;;6.70;4.82;;;;;;;14.62;58.43;98532.03;5054113;28;20465;-59
2022/05/17 08:14:40;;;;;;;7.30;4.90;;;;;;;14.83;57.53;98522.44;5048499;28;20480;-56
2022/05/17 08:17:08;;;;;;;7.22;4.25;;;;;;;14.90;58.76;98512.59;5033683;28;20033;-51
2022/05/17 08:19:35;;;;;;;5.25;4.35;;;;;;;14.92;58.83;98515.94;5052598;28;20029;-56
2022/05/17 08:22:03;;;;;;;5.88;4.60;;;;;;;14.91;57.93;98525.03;5053295;28;20029;-59
2022/05/17 08:24:28;;;;;;;5.32;3.95;;;;;;;14.81;57.35;98524.50;5053007;28;20029;-53
2022/05/17 08:29:37;;;;;;;6.80;4.57;;;;;;;14.53;59.08;98533.13;5052150;28;20488;-59
2022/05/17 08:34:47;;;;;;;5.22;4.72;;;;;;;14.34;58.55;98536.13;5046633;28;20833;-59
2022/05/17 08:37:13;;;;;;;4.85;4.35;;;;;;;14.09;60.12;98548.94;5042855;28;20037;-57
2022/05/17 08:39:38;;;;;;;7.65;4.82;;;;;;;13.78;61.25;98541.72;5052210;28;20039;-61
2022/05/17 08:42:24;;;;;;;6.60;4.35;;;;;;;13.70;61.81;98558.72;5053437;28;20477;-57
2022/05/17 08:44:56;;;;;;;6.63;4.70;;;;;;;13.46;62.51;98559.66;5043733;28;20044;-58
2022/05/17 08:47:45;;;;;;;5.53;4.30;;;;;;;13.47;63.31;98547.88;5034021;28;20041;-58
2022/05/17 08:50:15;;;;;;;5.35;4.10;;;;;;;13.50;63.68;98544.84;5033075;28;20477;-56
2022/05/17 08:52:41;;;;;;;4.30;3.70;;;;;;;13.67;63.33;98551.00;5036186;28;20080;-59
2022/05/17 08:55:34;;;;;;;6.25;3.42;;;;;;;13.80;62.20;98561.22;5034013;28;20060;-61
2022/05/17 08:58:07;;;;;;;4.30;3.35;;;;;;;13.50;61.68;98560.97;5032695;28;20389;-59
2022/05/17 09:00:40;;;;;;;7.15;4.00;;;;;;;12.92;62.32;98515.44;5038592;28;20057;-59
2022/05/17 09:03:41;;;;;;;5.93;4.00;;;;;;;13.18;63.75;98560.91;5041543;28;20427;-55
2022/05/17 09:06:06;;;;;;;4.57;4.03;;;;;;;13.13;63.18;98557.06;5051796;28;20040;-58
2022/05/17 09:09:04;;;;;;;5.60;3.85;;;;;;;13.25;62.89;98557.53;5051512;28;20032;-58
2022/05/17 09:11:58;;;;;;;5.25;3.90;;;;;;;13.19;62.37;98556.34;5051905;28;20044;-58
2022/05/17 09:14:33;;;;;;;6.30;3.90;;;;;;;12.92;62.85;98570.03;5046598;28;20147;-57
2022/05/17 09:17:04;;;;;;;7.15;4.30;;;;;;;12.59;63.05;98571.91;5051903;28;20041;-61
2022/05/17 09:19:30;;;;;;;5.00;4.20;;;;;;;12.22;63.83;98541.00;5048029;28;20108;-57
2022/05/17 09:21:59;;;;;;;5.47;4.70;;;;;;;12.19;63.83;98564.47;5052351;28;20462;-61
2022/05/17 09:24:30;;;;;;;5.40;4.90;;;;;;;12.11;64.95;98569.84;5051517;28;20120;-57
2022/05/17 09:27:11;;;;;;;7.63;5.00;;;;;;;12.09;65.26;98573.69;5035006;28;20553;-61
2022/05/17 09:29:44;;;;;;;8.45;5.13;;;;;;;11.99;65.82;98571.09;5043008;28;20124;-57
2022/05/17 09:32:11;;;;;;;6.55;5.25;;;;;;;11.91;65.82;98572.78;5032353;28;20106;-59
2022/05/17 09:34:38;;;;;;;7.45;5.63;;;;;;;11.88;65.92;98574.94;5032376;28;20040;-58
2022/05/17 09:37:19;;;;;;;6.72;5.78;;;;;;;12.01;65.81;98574.50;5050183;28;20041;-60
2022/05/17 09:39:49;;;;;;;8.52;6.30;;;;;;;11.95;65.65;98584.03;5050680;28;20032;-58
2022/05/17 09:42:33;;;;;;;8.55;6.13;;;;;;;11.95;65.79;98584.03;5034161;28;20078;-60
2022/05/17 09:45:06;;;;;;;10.82;5.97;;;;;;;11.92;65.87;98579.81;5041492;28;20071;-61
2022/05/17 09:47:40;;;;;;;6.47;5.28;;;;;;;11.76;65.79;98559.16;5045020;28;20587;-58
2022/05/17 09:53:10;;;;;;;5.78;5.18;;;;;;;11.84;66.28;98581.63;5047930;28;20781;-61
2022/05/17 09:55:37;;;;;;;8.38;5.90;;;;;;;11.67;66.68;98581.56;5027344;28;20042;-62
2022/05/17 09:58:08;;;;;;;5.78;5.22;;;;;;;11.68;66.47;98582.41;5035417;28;20037;-62
2022/05/17 10:00:48;;;;;;;6.30;5.60;;;;;;;11.61;66.64;98582.22;5034588;28;20096;-63
2022/05/17 10:03:16;;;;;;;7.43;5.55;;;;;;;11.62;66.78;98589.25;5036636;28;20091;-60
2022/05/17 10:05:49;;;;;;;6.65;5.90;;;;;;;11.63;67.22;98585.56;5040945;28;20116;-61
2022/05/17 10:08:14;;;;;;;7.30;6.20;;;;;;;11.62;67.86;98582.06;5036774;28;20029;-59
2022/05/17 10:10:46;;;;;;;6.63;5.93;;;;;;;11.72;67.24;98584.63;5031397;28;20338;-60
2022/05/17 10:13:15;;;;;;;6.22;5.60;;;;;;;11.58;67.13;98578.03;5031283;28;20095;-59
2022/05/17 10:15:45;;;;;;;10.05;5.97;;;;;;;11.56;67.31;98579.19;5051230;28;20064;-62
2022/05/17 10:18:35;;;;;;;6.45;5.68;;;;;;;11.63;67.33;98575.69;5042114;28;20042;-63
2022/05/17 10:21:29;;;;;;;7.18;6.32;;;;;;;11.74;66.91;98582.63;5035058;28;20071;-62
2022/05/17 10:24:29;;;;;;;7.57;6.03;;;;;;;11.73;66.75;98583.63;5019680;28;20066;-62
2022/05/17 10:27:11;;;;;;;6.88;6.00;;;;;;;11.78;66.74;98589.31;5040516;28;20058;-61
2022/05/17 10:29:52;;;;;;;7.03;5.72;;;;;;;11.85;66.93;98588.66;5034477;28;20109;-61
2022/05/17 10:32:21;;;;;;;6.82;6.07;;;;;;;11.84;66.58;98581.63;5014671;28;20050;-62
2022/05/17 10:34:53;;;;;;;8.30;6.22;;;;;;;11.90;66.10;98597.91;5037153;28;20041;-59
2022/05/17 10:37:23;;;;;;;8.82;5.68;;;;;;;11.90;65.92;98591.69;5036703;28;20041;-59
2022/05/17 10:40:07;;;;;;;8.90;6.85;;;;;;;11.90;66.14;98599.75;5043320;28;20043;-57
2022/05/17 10:42:33;;;;;;;9.48;6.13;;;;;;;11.67;66.69;98589.59;5015422;28;20036;-55
2022/05/17 10:44:59;;;;;;;9.15;6.30;;;;;;;11.55;67.03;98583.69;5039816;28;20033;-59
2022/05/17 10:47:58;;;;;;;8.23;6.55;;;;;;;11.73;67.21;98598.84;5048254;28;20427;-57
2022/05/17 10:50:37;;;;;;;8.60;6.13;;;;;;;11.77;67.04;98597.53;5041336;28;20086;-61
2022/05/17 10:53:33;;;;;;;6.85;6.20;;;;;;;11.80;66.54;98599.88;5039311;28;20033;-63
2022/05/17 10:56:22;;;;;;;6.45;5.85;;;;;;;11.79;66.22;98595.50;5013803;28;20044;-62
2022/05/17 10:58:57;;;;;;;9.15;6.20;;;;;;;12.01;66.15;98602.16;5030694;28;20080;-62
2022/05/17 11:01:33;;;;;;;6.10;5.45;;;;;;;12.22;65.21;98602.72;4997536;28;20632;-63
2022/05/17 11:04:08;;;;;;;;;;;;;;;12.62;63.63;98593.84;5051485;28;20060;-60
2022/05/17 11:06:51;;;;;;;9.10;5.68;;;;;;;12.60;63.58;98601.25;5039140;28;20004;-53
2022/05/17 11:09:59;;;;;;;11.65;6.40;;;;;;;12.65;63.80;98603.44;5042204;28;20512;-54
2022/05/17 11:12:32;;;;;;;7.22;6.13;;;;;;;12.51;63.96;98606.78;4972975;28;20038;-58
2022/05/17 11:15:08;;;;;;;8.30;6.43;;;;;;;12.61;64.18;98610.16;4987732;28;20045;-58
2022/05/17 11:17:50;;;;;;;6.50;5.85;;;;;;;12.62;63.47;98568.88;4997537;28;20393;-56
2022/05/17 11:20:24;;;;;;;7.45;5.97;;;;;;;12.89;62.48;98586.47;5043316;28;20174;-58
2022/05/17 11:23:35;;;;;;;7.38;6.00;;;;;;;12.99;62.97;98598.88;5049194;28;20040;-59
2022/05/17 11:26:38;;;;;;;9.40;6.05;;;;;;;12.98;62.98;98600.72;5008132;28;20366;-58
2022/05/17 11:29:06;;;;;;;6.88;5.70;;;;;;;12.76;63.24;98603.09;4999418;28;20124;-57
2022/05/17 11:31:56;;;;;;;7.38;5.97;;;;;;;12.86;63.85;98615.53;5030881;28;20053;-56
2022/05/17 11:34:22;;;;;;;7.38;5.88;;;;;;;12.72;63.62;98611.66;5034260;28;20084;-60
2022/05/17 11:36:49;;;;;;;8.85;6.25;;;;;;;12.78;63.47;98622.59;5050579;28;20497;-60
2022/05/17 11:39:46;;;;;;;9.38;6.22;;;;;;;13.05;63.45;98622.38;5049283;28;20028;-58
2022/05/17 11:42:25;;;;;;;10.30;6.20;;;;;;;13.10;62.82;98619.19;5050105;28;20044;-59
2022/05/17 11:44:50;;;;;;;12.15;6.00;;;;;;;12.88;62.40;98610.81;5043278;28;20033;-65
2022/05/17 11:47:38;;;;;;;8.10;5.88;;;;;;;13.06;63.71;98622.22;5030359;28;20394;-62
2022/05/17 11:50:15;;;;;;;6.60;5.90;;;;;;;13.18;62.00;98606.59;5020950;28;20155;-63
2022/05/17 11:52:45;;;;;;;8.63;5.25;;;;;;;13.08;62.31;98619.34;5035284;28;20473;-60
2022/05/17 11:55:16;;;;;;;6.15;5.55;;;;;;;13.04;62.38;98612.66;5040747;28;20029;-60
2022/05/17 11:57:43;;;;;;;7.32;6.22;;;;;;;13.03;62.46;98616.34;5048943;28;20381;-61
2022/05/17 12:00:28;;;;;;;6.90;6.07;;;;;;;13.12;62.99;98630.63;5049135;28;20048;-61
2022/05/17 12:02:59;;;;;;;9.52;6.18;;;;;;;13.07;62.69;98626.59;5049947;28;20033;-61